Time;durP1;ratioP1;P1;durP2;ratioP2;P2;SDS_P1;SDS_P2;PMS_P1;PMS_P2;Temp;Humidity;BMP_temperature;BMP_pressure;BME280_temperature;BME280_humidity;BME280_pressure;Samples;Min_cycle;Max_cycle;Signal;HPM_P1;HPM_P2
2023/11/11 00:00:20;;;;;;;28.00;17.17;;;;;;;7.20;100.00;101528.28;5017410;28;20184;-78
2023/11/11 00:02:45;;;;;;;24.30;17.80;;;;;;;7.15;100.00;101525.28;5021540;28;20208;-75
2023/11/11 00:05:11;;;;;;;23.77;17.23;;;;;;;7.23;100.00;101502.16;5005271;28;20439;-78
2023/11/11 00:07:36;;;;;;;24.73;17.33;;;;;;;7.51;100.00;101519.75;5014513;28;20223;-76
2023/11/11 00:10:02;;;;;;;20.37;14.93;;;;;;;7.62;100.00;101520.28;5006336;28;20200;-78
2023/11/11 00:12:28;;;;;;;19.87;15.10;;;;;;;7.43;100.00;101509.88;5009613;28;20222;-78
2023/11/11 00:14:53;;;;;;;19.60;15.40;;;;;;;7.26;100.00;101458.28;5013907;28;20476;-77
2023/11/11 00:17:19;;;;;;;24.30;16.20;;;;;;;7.09;100.00;101494.75;5016527;28;20275;-75
2023/11/11 00:19:44;;;;;;;22.23;16.40;;;;;;;6.86;100.00;101477.63;5016198;28;20567;-76
2023/11/11 00:22:11;;;;;;;22.17;15.57;;;;;;;6.81;100.00;101440.75;5018052;28;20927;-75
2023/11/11 00:24:38;;;;;;;24.97;15.67;;;;;;;7.08;100.00;101401.53;5020793;28;20184;-77
2023/11/11 00:27:04;;;;;;;20.20;14.20;;;;;;;7.51;100.00;101483.22;5015090;28;20523;-78
2023/11/11 00:29:30;;;;;;;23.27;15.30;;;;;;;7.23;100.00;101459.44;5013081;28;20451;-82
2023/11/11 00:31:56;;;;;;;20.23;14.10;;;;;;;7.31;100.00;101461.28;5004288;28;20451;-78
2023/11/11 00:34:21;;;;;;;18.77;14.57;;;;;;;7.38;100.00;101470.34;5002156;28;20176;-78
2023/11/11 00:36:50;;;;;;;18.70;14.07;;;;;;;7.56;100.00;101466.72;5014779;28;20201;-76
2023/11/11 00:39:16;;;;;;;21.63;12.70;;;;;;;7.39;100.00;101431.97;5013576;28;20288;-77
2023/11/11 00:41:43;;;;;;;17.53;10.50;;;;;;;7.11;100.00;101398.53;5012766;28;20450;-76
2023/11/11 00:44:09;;;;;;;15.03;10.17;;;;;;;7.52;100.00;101419.97;5014679;28;20824;-77
2023/11/11 00:46:39;;;;;;;13.20;8.67;;;;;;;7.30;100.00;101360.06;4996378;28;20443;-76
2023/11/11 00:49:09;;;;;;;10.23;7.87;;;;;;;7.49;100.00;101367.75;5014156;28;20736;-75
2023/11/11 00:51:39;;;;;;;10.00;7.40;;;;;;;7.50;100.00;101345.41;5014391;28;20479;-77
2023/11/11 00:54:09;;;;;;;11.50;6.80;;;;;;;7.51;100.00;101331.06;5000102;28;20485;-76
2023/11/11 00:56:36;;;;;;;9.17;6.00;;;;;;;7.35;100.00;101288.38;5001313;28;20439;-80
2023/11/11 00:59:03;;;;;;;9.03;5.20;;;;;;;7.31;100.00;101277.16;5012786;28;20451;-76
2023/11/11 01:01:28;;;;;;;9.60;5.30;;;;;;;6.73;100.00;101168.78;5014014;28;20500;-76
2023/11/11 01:03:54;;;;;;;8.20;4.53;;;;;;;6.07;100.00;101096.72;5015934;28;20446;-77
2023/11/11 01:06:19;;;;;;;6.30;3.57;;;;;;;7.11;100.00;101263.31;5009337;28;20189;-76
2023/11/11 01:08:45;;;;;;;5.37;3.70;;;;;;;7.40;100.00;101272.66;5009375;28;20176;-76
2023/11/11 01:11:14;;;;;;;6.67;3.33;;;;;;;7.65;100.00;101252.13;4999728;28;20639;-77
2023/11/11 01:13:39;;;;;;;5.80;3.67;;;;;;;6.88;100.00;101200.97;5001581;28;20181;-79
2023/11/11 01:16:05;;;;;;;7.63;3.70;;;;;;;6.57;100.00;101167.78;5016850;28;20438;-77
2023/11/11 01:18:30;;;;;;;4.57;3.50;;;;;;;7.05;100.00;101225.81;4997922;28;20188;-76
2023/11/11 01:20:57;;;;;;;7.30;3.40;;;;;;;7.36;100.00;101231.31;5000981;28;20200;-78
2023/11/11 01:23:22;;;;;;;6.57;3.63;;;;;;;7.03;100.00;101209.97;4996484;28;20203;-81
2023/11/11 01:25:48;;;;;;;6.53;3.53;;;;;;;7.34;100.00;101196.78;5015995;28;20438;-78
2023/11/11 01:28:13;;;;;;;6.90;3.63;;;;;;;7.61;100.00;101248.13;4999293;28;20679;-84
2023/11/11 01:30:39;;;;;;;5.50;3.73;;;;;;;7.32;100.00;101244.16;5019955;28;20231;-78
2023/11/11 01:33:06;;;;;;;7.90;4.07;;;;;;;7.43;100.00;101205.59;5017695;28;20192;-77
2023/11/11 01:35:31;;;;;;;5.97;4.30;;;;;;;6.86;100.00;101093.66;5014886;28;20196;-77
2023/11/11 01:37:57;;;;;;;8.60;4.33;;;;;;;6.75;100.00;101073.50;5018018;28;20454;-76
2023/11/11 01:40:23;;;;;;;9.80;5.10;;;;;;;7.41;100.00;101184.44;5019601;28;20181;-77
2023/11/11 01:42:48;;;;;;;6.07;3.87;;;;;;;7.24;100.00;101092.06;5001608;28;20200;-77
2023/11/11 01:45:14;;;;;;;6.83;4.77;;;;;;;7.61;100.00;101146.69;5015212;28;20446;-82
2023/11/11 01:47:40;;;;;;;6.50;4.50;;;;;;;7.82;100.00;101148.78;5016204;28;20264;-77
2023/11/11 01:50:06;;;;;;;7.97;5.13;;;;;;;7.63;100.00;101158.84;5001790;28;20702;-79
2023/11/11 01:52:32;;;;;;;10.23;5.60;;;;;;;7.15;100.00;101120.59;5016403;28;20547;-76
2023/11/11 01:54:58;;;;;;;9.67;6.30;;;;;;;7.60;100.00;101163.69;5019766;28;20514;-79
2023/11/11 01:57:26;;;;;;;9.43;5.80;;;;;;;7.56;100.00;101144.53;5003277;28;20442;-78
2023/11/11 01:59:54;;;;;;;8.90;6.17;;;;;;;7.43;100.00;101152.22;5020892;28;20438;-80
2023/11/11 02:02:19;;;;;;;8.00;6.10;;;;;;;7.40;100.00;101116.03;5012796;28;20466;-80
2023/11/11 02:04:45;;;;;;;7.83;5.60;;;;;;;7.00;100.00;101107.13;5003935;28;20828;-77
2023/11/11 02:07:10;;;;;;;17.73;7.47;;;;;;;6.96;100.00;101060.44;5013671;28;20280;-78
2023/11/11 02:09:36;;;;;;;11.70;6.33;;;;;;;7.59;100.00;101132.69;5005718;28;20181;-78
2023/11/11 02:12:02;;;;;;;9.40;6.20;;;;;;;7.23;100.00;101071.72;4997960;28;21987;-79
2023/11/11 02:14:27;;;;;;;8.17;5.40;;;;;;;7.32;100.00;101078.72;4991653;28;20474;-78
2023/11/11 02:16:53;;;;;;;9.23;5.53;;;;;;;7.58;100.00;101142.53;5020265;28;20662;-79
2023/11/11 02:19:18;;;;;;;9.27;5.23;;;;;;;6.79;100.00;101042.81;5013671;28;20196;-79
2023/11/11 02:21:45;;;;;;;9.37;5.00;;;;;;;7.45;100.00;101135.03;4999279;28;20197;-76
2023/11/11 02:24:11;;;;;;;9.20;4.97;;;;;;;6.42;100.00;100976.72;5016001;28;20187;-77
2023/11/11 02:26:37;;;;;;;10.03;4.60;;;;;;;7.20;100.00;101109.41;5003162;28;21003;-76
2023/11/11 02:29:02;;;;;;;8.63;5.00;;;;;;;6.21;100.00;100967.41;5015855;28;20946;-75
2023/11/11 02:31:28;;;;;;;8.10;4.13;;;;;;;6.84;100.00;101047.66;5007017;28;20510;-75
2023/11/11 02:33:53;;;;;;;9.83;4.30;;;;;;;7.09;100.00;101088.41;5017958;28;20278;-75
2023/11/11 02:36:19;;;;;;;5.87;3.30;;;;;;;6.13;100.00;100923.97;5018667;28;20195;-76
2023/11/11 02:38:45;;;;;;;8.70;3.70;;;;;;;7.13;100.00;101044.41;5009136;28;20184;-77
2023/11/11 02:41:10;;;;;;;5.80;2.97;;;;;;;7.34;100.00;101039.31;5017612;28;20463;-77
2023/11/11 02:43:36;;;;;;;5.70;3.00;;;;;;;6.87;100.00;100924.66;5018138;28;20957;-76
2023/11/11 02:46:01;;;;;;;4.30;2.47;;;;;;;7.19;100.00;100998.38;5018034;28;20263;-77
2023/11/11 02:48:28;;;;;;;4.57;2.30;;;;;;;7.74;100.00;101050.84;5011544;28;20193;-79
2023/11/11 02:50:53;;;;;;;6.07;2.80;;;;;;;7.05;100.00;101047.09;5018188;28;20751;-77
2023/11/11 02:53:19;;;;;;;6.80;2.90;;;;;;;7.50;100.00;101093.69;5019696;28;20442;-78
2023/11/11 02:55:45;;;;;;;6.67;3.27;;;;;;;6.77;100.00;101008.34;5018921;28;20180;-77
2023/11/11 02:58:10;;;;;;;6.63;3.10;;;;;;;7.18;100.00;101071.41;5014320;28;20193;-75
2023/11/11 03:00:39;;;;;;;8.27;3.10;;;;;;;6.74;100.00;101031.81;5003306;28;20454;-75
2023/11/11 03:03:06;;;;;;;6.93;3.10;;;;;;;6.88;100.00;101065.78;5014794;28;20238;-76
2023/11/11 03:05:33;;;;;;;6.43;2.90;;;;;;;7.01;100.00;101049.28;5006645;28;20999;-77
2023/11/11 03:07:58;;;;;;;6.50;2.57;;;;;;;7.38;100.00;101093.22;5003831;28;20497;-76
2023/11/11 03:10:24;;;;;;;5.30;2.30;;;;;;;6.77;100.00;100972.84;5001173;28;20475;-78
2023/11/11 03:12:50;;;;;;;5.80;2.37;;;;;;;7.30;100.00;101067.38;5016059;28;20455;-77
2023/11/11 03:15:15;;;;;;;7.47;2.63;;;;;;;6.71;100.00;100944.19;5014635;28;20192;-76
2023/11/11 03:17:43;;;;;;;8.43;2.20;;;;;;;7.69;100.00;101071.88;4992787;28;20200;-77
2023/11/11 03:20:08;;;;;;;3.97;1.67;;;;;;;7.09;100.00;100992.41;5015247;28;20245;-77
2023/11/11 03:22:34;;;;;;;4.63;1.53;;;;;;;7.29;100.00;101068.38;5016954;28;20561;-76
2023/11/11 03:24:59;;;;;;;4.97;1.33;;;;;;;7.20;100.00;101005.38;5017526;28;20192;-77
2023/11/11 03:27:25;;;;;;;3.80;1.60;;;;;;;7.15;100.00;101007.75;4999676;28;20176;-77
2023/11/11 03:29:51;;;;;;;4.40;1.40;;;;;;;6.86;100.00;100923.84;5015554;28;20196;-79
2023/11/11 03:32:16;;;;;;;4.23;1.70;;;;;;;7.47;100.00;101022.78;5015411;28;20477;-79
2023/11/11 03:34:42;;;;;;;4.10;1.00;;;;;;;7.18;100.00;100991.38;5014305;28;20200;-77
2023/11/11 03:37:07;;;;;;;5.70;1.73;;;;;;;6.16;100.00;100836.56;5048544;22;20239;-74
2023/11/11 03:39:33;;;;;;;5.90;1.20;;;;;;;5.75;100.00;100794.03;5023490;28;20253;-74
2023/11/11 03:41:59;;;;;;;5.90;1.10;;;;;;;6.50;100.00;100860.28;5041024;28;20570;-74
2023/11/11 03:44:24;;;;;;;3.70;1.00;;;;;;;5.31;100.00;100717.25;5024257;28;20790;-74
2023/11/11 03:46:50;;;;;;;3.87;1.00;;;;;;;5.27;100.00;100673.38;5022097;28;20658;-74
2023/11/11 03:49:15;;;;;;;4.27;1.00;;;;;;;5.25;100.00;100691.31;5023606;28;20196;-74
2023/11/11 03:51:41;;;;;;;4.13;1.20;;;;;;;5.95;100.00;100813.16;5027322;28;20204;-74
2023/11/11 03:54:06;;;;;;;5.23;1.43;;;;;;;6.38;100.00;100835.03;5029099;28;20645;-74
2023/11/11 03:56:32;;;;;;;8.20;1.43;;;;;;;6.16;100.00;100803.78;5026851;28;20201;-74
2023/11/11 03:58:58;;;;;;;5.27;1.10;;;;;;;5.54;100.00;100708.56;5026178;28;20194;-74
2023/11/11 04:01:24;;;;;;;2.83;0.90;;;;;;;6.26;100.00;100829.25;5024984;28;20187;-74
2023/11/11 04:03:50;;;;;;;4.30;1.20;;;;;;;5.82;100.00;100736.47;5027680;28;20324;-74
2023/11/11 04:06:16;;;;;;;4.07;0.90;;;;;;;5.38;100.00;100621.63;5028035;28;20550;-74
2023/11/11 04:08:41;;;;;;;5.10;0.90;;;;;;;6.34;100.00;100815.06;5025526;28;20196;-74
2023/11/11 04:11:07;;;;;;;3.00;0.70;;;;;;;5.75;100.00;100763.91;5028348;28;20212;-74
2023/11/11 04:13:40;;;;;;;4.10;0.90;;;;;;;6.41;100.00;100820.53;5026260;28;20652;-74
2023/11/11 04:16:08;;;;;;;3.37;0.90;;;;;;;7.17;100.00;100952.34;5030467;28;20195;-74
2023/11/11 04:18:34;;;;;;;3.40;0.77;;;;;;;6.64;100.00;100877.41;5022821;28;20439;-74
2023/11/11 04:21:02;;;;;;;3.57;0.90;;;;;;;6.47;100.00;100833.16;5026236;28;20446;-74
2023/11/11 04:23:30;;;;;;;3.67;0.80;;;;;;;5.74;100.00;100730.31;5025797;28;20216;-74
2023/11/11 04:25:56;;;;;;;8.10;0.87;;;;;;;5.76;100.00;100696.41;5028203;28;20450;-74
2023/11/11 04:28:28;;;;;;;6.40;1.20;;;;;;;6.07;100.00;100797.66;5026634;28;20444;-74
2023/11/11 04:30:54;;;;;;;5.83;0.90;;;;;;;5.49;100.00;100658.53;5028098;28;20483;-74
2023/11/11 04:33:20;;;;;;;5.17;0.80;;;;;;;5.96;100.00;100734.97;5025307;28;20807;-74
2023/11/11 04:35:46;;;;;;;6.30;1.10;;;;;;;6.11;100.00;100797.16;5023666;28;20338;-74
2023/11/11 04:38:12;;;;;;;6.70;0.90;;;;;;;5.43;100.00;100678.66;5017144;28;21018;-74
2023/11/11 04:40:38;;;;;;;4.70;0.90;;;;;;;5.77;100.00;100780.56;5025884;28;20443;-74
2023/11/11 04:43:04;;;;;;;4.83;0.90;;;;;;;5.98;100.00;100847.44;5027097;28;20461;-74
2023/11/11 04:45:30;;;;;;;4.93;1.20;;;;;;;5.25;100.00;100706.44;5026177;28;20435;-74
2023/11/11 04:47:56;;;;;;;5.33;1.03;;;;;;;7.10;100.00;101023.41;5024669;28;20192;-74
2023/11/11 04:50:22;;;;;;;5.23;0.90;;;;;;;4.96;100.00;100699.81;5026938;28;20498;-74
2023/11/11 04:52:48;;;;;;;5.00;1.00;;;;;;;5.01;100.00;100668.25;5026699;28;20437;-74
2023/11/11 04:55:13;;;;;;;4.23;0.93;;;;;;;6.03;100.00;100893.03;5024698;28;20192;-74
2023/11/11 04:57:39;;;;;;;4.10;0.80;;;;;;;5.86;100.00;100883.34;5026868;28;20184;-75
2023/11/11 05:00:09;;;;;;;3.70;0.70;;;;;;;5.37;100.00;100783.06;5022569;28;20196;-74
2023/11/11 05:02:36;;;;;;;5.33;0.80;;;;;;;6.15;100.00;100901.50;5022797;28;20192;-74
2023/11/11 05:05:01;;;;;;;3.70;0.70;;;;;;;7.29;100.00;101065.72;5026553;28;20552;-74
2023/11/11 05:07:27;;;;;;;3.47;0.93;;;;;;;6.19;100.00;100878.88;5027797;28;20438;-75
2023/11/11 05:09:52;;;;;;;3.87;0.70;;;;;;;6.11;100.00;100894.88;5032233;28;20187;-74
2023/11/11 05:12:18;;;;;;;3.63;0.60;;;;;;;5.00;100.00;100693.16;5025961;28;20194;-74
2023/11/11 05:14:43;;;;;;;5.07;1.00;;;;;;;4.94;100.00;100691.97;5026356;28;20240;-74
2023/11/11 05:17:09;;;;;;;4.33;0.77;;;;;;;5.22;100.00;100756.31;5028210;28;20189;-74
2023/11/11 05:19:35;;;;;;;3.70;0.70;;;;;;;5.68;100.00;100856.91;5029820;28;20203;-74
2023/11/11 05:22:02;;;;;;;3.53;0.80;;;;;;;6.57;100.00;101015.03;5029175;28;20431;-74
2023/11/11 05:24:29;;;;;;;4.63;1.07;;;;;;;6.32;100.00;100923.63;5027118;28;20660;-74
2023/11/11 05:26:54;;;;;;;4.00;0.77;;;;;;;5.70;100.00;100856.72;5027836;28;20501;-75
2023/11/11 05:29:21;;;;;;;3.40;0.73;;;;;;;5.85;100.00;100855.09;5029335;28;20473;-74
2023/11/11 05:31:46;;;;;;;5.37;0.70;;;;;;;5.79;100.00;100851.25;5029533;28;20208;-75
2023/11/11 05:34:12;;;;;;;4.10;0.80;;;;;;;6.10;100.00;100914.47;5025539;28;20502;-74
2023/11/11 05:36:37;;;;;;;4.07;0.87;;;;;;;6.37;100.00;100957.78;5025291;28;20224;-74
2023/11/11 05:39:03;;;;;;;3.73;0.90;;;;;;;5.53;100.00;100803.53;5030844;28;20218;-74
2023/11/11 05:41:31;;;;;;;2.30;0.63;;;;;;;5.60;100.00;100841.75;5025719;28;20169;-74
2023/11/11 05:43:57;;;;;;;5.07;0.70;;;;;;;6.56;100.00;101042.66;5033479;28;20200;-74
2023/11/11 05:46:26;;;;;;;4.90;1.07;;;;;;;6.04;100.00;100947.94;5028832;28;20473;-74
2023/11/11 05:48:51;;;;;;;3.00;0.70;;;;;;;4.73;100.00;100702.28;5031312;28;20434;-74
2023/11/11 05:51:17;;;;;;;3.90;0.80;;;;;;;5.53;100.00;100848.75;5032103;28;20779;-75
2023/11/11 05:53:42;;;;;;;2.53;0.60;;;;;;;4.81;100.00;100736.00;5030179;28;20220;-74
2023/11/11 05:56:08;;;;;;;3.33;0.70;;;;;;;6.50;100.00;101004.19;5031108;28;20469;-74
2023/11/11 05:58:35;;;;;;;9.20;1.10;;;;;;;6.00;100.00;100911.19;5035803;28;20184;-74
2023/11/11 06:01:00;;;;;;;8.03;1.00;;;;;;;5.43;100.00;100859.53;5026858;28;20551;-75
2023/11/11 06:03:26;;;;;;;6.00;0.87;;;;;;;5.01;100.00;100726.72;5028563;28;20505;-75
2023/11/11 06:05:51;;;;;;;6.10;0.90;;;;;;;5.76;100.00;100880.03;5034110;28;20193;-75
2023/11/11 06:08:19;;;;;;;3.47;0.80;;;;;;;5.62;100.00;100815.81;5027089;28;20184;-75
2023/11/11 06:10:44;;;;;;;10.33;2.30;;;;;;;5.20;100.00;100721.06;5029334;28;20204;-75
2023/11/11 06:13:10;;;;;;;3.60;1.13;;;;;;;5.32;100.00;100795.19;5031272;28;20477;-75
2023/11/11 06:15:35;;;;;;;3.70;0.83;;;;;;;6.83;100.00;101116.16;5031363;28;20800;-74
2023/11/11 06:18:02;;;;;;;8.77;1.40;;;;;;;4.72;100.00;100858.22;5032827;28;20180;-74
2023/11/11 06:20:30;;;;;;;7.53;2.50;;;;;;;4.45;100.00;100815.91;5030490;28;20180;-74
2023/11/11 06:22:56;;;;;;;6.15;1.80;;;;;;;4.71;100.00;100895.56;5030399;28;20427;-75
2023/11/11 06:25:22;;;;;;;8.25;2.25;;;;;;;5.34;100.00;101024.63;5031466;28;20799;-74
2023/11/11 06:27:48;;;;;;;5.87;1.80;;;;;;;4.90;100.00;100947.66;5027975;28;20438;-75
2023/11/11 06:30:16;;;;;;;5.57;1.37;;;;;;;6.06;100.00;101113.72;5031197;28;21271;-75
2023/11/11 06:32:43;;;;;;;4.20;1.50;;;;;;;5.85;100.00;101046.75;5029036;28;20577;-75
2023/11/11 06:35:09;;;;;;;4.60;1.10;;;;;;;4.72;100.00;100940.59;5028567;28;20427;-75
2023/11/11 06:37:37;;;;;;;4.00;1.20;;;;;;;5.54;100.00;101095.19;5028245;28;20446;-75
2023/11/11 06:40:03;;;;;;;3.30;1.23;;;;;;;5.92;100.00;101166.72;5028656;28;20430;-75
2023/11/11 06:42:30;;;;;;;3.30;0.80;;;;;;;6.14;100.00;101154.69;5027800;28;20835;-75
2023/11/11 06:44:56;;;;;;;5.03;0.80;;;;;;;5.37;100.00;101104.94;5033653;28;20698;-75
2023/11/11 06:47:22;;;;;;;6.70;1.13;;;;;;;5.37;100.00;101090.78;5023888;28;20522;-75
2023/11/11 06:49:47;;;;;;;5.07;0.90;;;;;;;5.38;100.00;101071.16;5031215;28;20501;-74
2023/11/11 06:52:13;;;;;;;4.20;0.70;;;;;;;5.03;100.00;101011.84;5029473;28;20181;-74
2023/11/11 06:54:38;;;;;;;7.40;1.77;;;;;;;6.52;100.00;101260.72;5033427;28;20212;-75
2023/11/11 06:57:05;;;;;;;3.80;1.20;;;;;;;5.47;100.00;101059.59;5029684;28;20193;-75
2023/11/11 06:59:31;;;;;;;4.67;0.80;;;;;;;5.95;100.00;101122.00;5026070;28;20547;-74
2023/11/11 07:01:56;;;;;;;2.63;0.87;;;;;;;5.62;100.00;101044.69;5025258;28;20429;-75
2023/11/11 07:04:22;;;;;;;2.57;0.70;;;;;;;7.12;100.00;101301.53;5028048;28;20454;-74
2023/11/11 07:06:47;;;;;;;2.93;0.70;;;;;;;5.92;100.00;101100.16;5028097;28;20193;-74
2023/11/11 07:09:13;;;;;;;2.17;0.60;;;;;;;5.69;100.00;101105.25;5026635;28;20188;-74
2023/11/11 07:11:39;;;;;;;3.80;1.00;;;;;;;6.11;100.00;101092.75;5027196;28;20818;-74
2023/11/11 07:14:06;;;;;;;3.20;0.90;;;;;;;6.37;100.00;101160.25;5028290;28;20707;-74
2023/11/11 07:16:33;;;;;;;2.90;0.70;;;;;;;5.49;100.00;101024.84;5026270;28;20259;-74
2023/11/11 07:18:58;;;;;;;4.93;0.70;;;;;;;5.76;100.00;101059.19;5022211;28;20497;-74
2023/11/11 07:21:24;;;;;;;4.27;0.87;;;;;;;5.30;100.00;101007.31;5023963;28;20451;-74
2023/11/11 07:23:53;;;;;;;4.27;0.70;;;;;;;5.69;100.00;101073.31;5024757;28;20207;-74
2023/11/11 07:26:19;;;;;;;4.40;0.73;;;;;;;6.08;100.00;101110.91;5025332;28;20540;-74
2023/11/11 07:28:46;;;;;;;2.67;0.60;;;;;;;6.37;100.00;101139.78;5020843;28;20521;-75
2023/11/11 07:31:15;;;;;;;6.23;0.93;;;;;;;7.04;100.00;101262.31;5023611;28;20220;-74
2023/11/11 07:33:42;;;;;;;4.30;0.80;;;;;;;4.98;100.00;100892.69;5023245;28;20458;-74
2023/11/11 07:36:09;;;;;;;3.33;0.60;;;;;;;6.01;100.00;101078.75;5019226;28;20447;-74
2023/11/11 07:38:35;;;;;;;2.60;0.50;;;;;;;4.62;100.00;100881.41;5020240;28;20524;-74
2023/11/11 07:41:01;;;;;;;4.17;0.70;;;;;;;4.74;100.00;100935.97;5018627;28;21100;-75
2023/11/11 07:43:27;;;;;;;4.20;0.60;;;;;;;5.66;100.00;101075.28;5019014;28;20471;-75
2023/11/11 07:45:52;;;;;;;2.53;0.50;;;;;;;5.30;100.00;101042.72;5022945;28;20196;-75
2023/11/11 07:48:18;;;;;;;3.97;0.87;;;;;;;6.22;100.00;101165.34;5016348;28;20187;-75
2023/11/11 07:50:47;;;;;;;2.80;0.60;;;;;;;4.71;100.00;100922.13;5023568;28;20216;-75
2023/11/11 07:53:15;;;;;;;3.00;0.60;;;;;;;5.99;100.00;101096.75;5021644;28;20528;-75
2023/11/11 07:55:41;;;;;;;2.53;0.60;;;;;;;5.46;100.00;101009.19;5022868;28;20896;-75
2023/11/11 07:58:06;;;;;;;3.03;0.70;;;;;;;5.40;100.00;100997.38;5020328;28;20444;-74
2023/11/11 08:00:33;;;;;;;2.07;0.53;;;;;;;4.99;100.00;100869.59;5019637;28;20439;-74
2023/11/11 08:03:00;;;;;;;2.53;0.57;;;;;;;5.72;100.00;101033.88;5022422;28;20208;-74
2023/11/11 08:05:28;;;;;;;4.83;0.70;;;;;;;6.58;100.00;101136.63;5025542;28;20451;-74
2023/11/11 08:07:55;;;;;;;2.50;0.60;;;;;;;6.45;100.00;101137.13;5017520;28;20452;-74
2023/11/11 08:10:21;;;;;;;2.90;0.70;;;;;;;5.50;100.00;100990.09;5018752;28;21010;-74
2023/11/11 08:12:47;;;;;;;2.00;0.60;;;;;;;4.80;100.00;100878.66;5023021;28;20550;-75
2023/11/11 08:15:12;;;;;;;3.90;0.90;;;;;;;5.80;100.00;101054.38;5020070;28;20996;-74
2023/11/11 08:17:38;;;;;;;6.13;0.80;;;;;;;5.56;100.00;101016.06;5023353;28;20204;-74
2023/11/11 08:20:04;;;;;;;4.10;0.63;;;;;;;6.32;100.00;101123.44;5031869;28;20197;-75
2023/11/11 08:22:30;;;;;;;4.70;0.60;;;;;;;5.84;100.00;101066.34;5021804;28;20189;-74
2023/11/11 08:24:55;;;;;;;3.60;0.60;;;;;;;5.66;100.00;101055.84;5024912;28;20487;-74
2023/11/11 08:27:20;;;;;;;3.30;0.70;;;;;;;6.38;100.00;101185.88;5024724;28;20191;-75
2023/11/11 08:29:47;;;;;;;4.03;0.73;;;;;;;5.79;100.00;101052.72;5023703;28;20560;-74
2023/11/11 08:32:13;;;;;;;3.20;0.70;;;;;;;6.10;100.00;101120.41;5023539;28;20273;-75
2023/11/11 08:34:38;;;;;;;3.43;0.60;;;;;;;6.01;100.00;101115.19;5022408;28;20454;-75
2023/11/11 08:37:04;;;;;;;3.27;0.73;;;;;;;4.78;100.00;100925.84;5024780;28;20203;-75
2023/11/11 08:39:29;;;;;;;2.53;0.70;;;;;;;6.15;100.00;101164.34;5022467;28;20216;-75
2023/11/11 08:41:55;;;;;;;3.47;0.90;;;;;;;5.63;100.00;101102.22;5024208;28;20173;-75
2023/11/11 08:44:20;;;;;;;2.50;0.60;;;;;;;6.24;100.00;101198.00;5025590;28;20208;-75
2023/11/11 08:46:46;;;;;;;5.63;0.80;;;;;;;5.44;100.00;101068.72;5024029;28;20196;-75
2023/11/11 08:49:11;;;;;;;5.37;0.80;;;;;;;5.16;100.00;101027.38;5024817;28;20262;-75
2023/11/11 08:51:37;;;;;;;2.67;0.70;;;;;;;5.51;100.00;101060.94;5019240;28;20219;-75
2023/11/11 08:54:03;;;;;;;3.60;0.67;;;;;;;6.54;100.00;101256.06;5020200;28;20208;-75
2023/11/11 08:56:31;;;;;;;2.83;0.70;;;;;;;6.45;100.00;101269.50;5023474;28;20184;-75
2023/11/11 08:58:56;;;;;;;4.27;0.83;;;;;;;4.88;100.00;101010.75;5022946;28;20572;-75
2023/11/11 09:01:22;;;;;;;3.60;0.70;;;;;;;6.34;100.00;101212.03;5014588;28;20436;-75
2023/11/11 09:03:49;;;;;;;3.73;1.00;;;;;;;6.10;100.00;101197.63;5016044;28;20215;-75
2023/11/11 09:06:16;;;;;;;2.57;0.70;;;;;;;5.12;100.00;101010.91;5016676;28;20189;-75
2023/11/11 09:08:43;;;;;;;3.53;0.80;;;;;;;6.29;100.00;101201.03;5021770;28;20990;-75
2023/11/11 09:11:11;;;;;;;3.27;0.80;;;;;;;6.23;100.00;101226.47;5027688;28;20470;-75
2023/11/11 09:13:36;;;;;;;3.43;0.60;;;;;;;5.58;100.00;101154.25;5024838;28;20467;-74
2023/11/11 09:16:02;;;;;;;2.93;0.70;;;;;;;6.69;100.00;101322.91;5019972;28;20489;-75
2023/11/11 09:18:28;;;;;;;4.00;0.70;;;;;;;5.60;100.00;101189.53;5023327;28;20737;-75
2023/11/11 09:20:53;;;;;;;3.50;0.70;;;;;;;5.50;100.00;101159.56;5025313;28;20527;-75
2023/11/11 09:23:19;;;;;;;3.80;0.83;;;;;;;6.06;100.00;101230.91;5022180;28;20782;-75
2023/11/11 09:25:44;;;;;;;4.80;1.07;;;;;;;5.27;100.00;101103.41;5019585;28;20637;-75
2023/11/11 09:28:10;;;;;;;3.53;0.70;;;;;;;5.14;100.00;101127.72;5020397;28;20250;-75
2023/11/11 09:30:35;;;;;;;4.43;0.70;;;;;;;6.11;100.00;101273.03;5015082;28;20208;-75
2023/11/11 09:33:02;;;;;;;3.10;0.80;;;;;;;5.41;100.00;101150.69;5021616;28;20262;-75
2023/11/11 09:35:27;;;;;;;4.27;1.00;;;;;;;6.71;100.00;101349.38;5016841;28;20947;-75
2023/11/11 09:37:53;;;;;;;3.63;0.90;;;;;;;6.01;100.00;101235.84;5022358;28;20451;-75
2023/11/11 09:40:18;;;;;;;4.77;0.93;;;;;;;6.56;100.00;101331.34;5021024;28;20202;-75
2023/11/11 09:42:44;;;;;;;7.30;1.10;;;;;;;5.85;100.00;101158.56;5020636;28;20212;-75
2023/11/11 09:45:13;;;;;;;5.10;0.87;;;;;;;6.16;100.00;101257.41;5019681;28;20195;-75
2023/11/11 09:47:42;;;;;;;5.30;0.90;;;;;;;6.24;100.00;101240.63;5020171;28;21136;-75
2023/11/11 09:50:11;;;;;;;3.40;0.90;;;;;;;6.17;100.00;101264.41;5023386;28;20467;-75
2023/11/11 09:52:38;;;;;;;9.87;1.20;;;;;;;6.22;100.00;101251.47;5023457;28;20451;-75
2023/11/11 09:55:05;;;;;;;5.27;0.90;;;;;;;5.94;100.00;101199.41;5025496;28;21857;-75
2023/11/11 09:57:32;;;;;;;3.60;0.70;;;;;;;5.48;100.00;101135.75;5024722;28;21011;-74
2023/11/11 10:02:41;;;;;;;3.00;0.80;;;;;;;7.27;100.00;101379.91;4970530;28;20567;-74
2023/11/11 10:05:17;;;;;;;4.50;0.90;;;;;;;7.40;100.00;101395.44;4978161;28;20437;-73
2023/11/11 10:07:42;;;;;;;4.00;0.80;;;;;;;7.74;100.00;101405.16;4955837;28;20451;-73
2023/11/11 10:10:09;;;;;;;5.50;0.80;;;;;;;7.56;100.00;101408.81;4975821;28;20442;-76
2023/11/11 10:12:37;;;;;;;13.03;0.90;;;;;;;7.43;100.00;101395.97;4977048;28;20205;-75
2023/11/11 10:15:04;;;;;;;4.33;0.97;;;;;;;7.36;100.00;101360.22;4980184;28;20448;-74
2023/11/11 10:17:30;;;;;;;6.10;0.90;;;;;;;7.37;100.00;101396.59;4978121;28;20445;-73
2023/11/11 10:19:59;;;;;;;10.27;0.80;;;;;;;7.47;100.00;101375.09;4965480;28;20887;-73
2023/11/11 10:22:25;;;;;;;4.23;0.70;;;;;;;7.27;100.00;101315.88;4965642;28;20519;-72
2023/11/11 10:24:50;;;;;;;3.70;0.83;;;;;;;7.45;100.00;101343.22;4985038;28;21183;-77
2023/11/11 10:27:17;;;;;;;2.87;0.70;;;;;;;6.90;100.00;101271.78;4981726;28;20455;-75
2023/11/11 10:29:42;;;;;;;3.90;0.80;;;;;;;7.59;100.00;101351.59;4979318;28;21025;-74
2023/11/11 10:32:09;;;;;;;3.27;0.90;;;;;;;7.63;100.00;101353.72;4977906;28;20468;-76
2023/11/11 10:34:37;;;;;;;5.40;0.80;;;;;;;7.02;100.00;101286.47;4978780;28;22384;-71
2023/11/11 10:37:03;;;;;;;5.07;0.93;;;;;;;7.67;100.00;101340.91;4960681;28;21021;-71
2023/11/11 10:39:33;;;;;;;3.10;0.73;;;;;;;7.85;100.00;101346.91;4978768;28;20452;-72
2023/11/11 10:42:00;;;;;;;2.30;0.70;;;;;;;7.60;100.00;101321.22;4960253;28;20456;-72
2023/11/11 10:44:26;;;;;;;3.50;0.70;;;;;;;7.91;100.00;101327.53;4976224;28;20519;-73
2023/11/11 10:46:51;;;;;;;4.90;0.93;;;;;;;7.95;100.00;101322.66;4977339;28;20585;-72
2023/11/11 10:49:17;;;;;;;3.40;1.13;;;;;;;7.57;100.00;101257.47;4977164;28;20188;-74
2023/11/11 10:51:45;;;;;;;5.60;1.23;;;;;;;7.07;100.00;101210.47;4957592;28;20277;-73
2023/11/11 10:54:13;;;;;;;4.40;1.07;;;;;;;7.80;100.00;101325.19;4974893;28;20446;-74
2023/11/11 10:56:39;;;;;;;5.50;0.93;;;;;;;7.93;100.00;101327.38;4975965;28;20450;-73
2023/11/11 10:59:05;;;;;;;2.30;0.70;;;;;;;8.04;100.00;101328.81;4959514;28;20778;-72
2023/11/11 11:01:32;;;;;;;5.20;1.37;;;;;;;8.00;100.00;101343.53;4959448;28;20532;-74
2023/11/11 11:03:59;;;;;;;5.57;1.27;;;;;;;7.29;100.00;101284.53;4977118;28;20459;-74
2023/11/11 11:06:52;;;;;;;5.00;1.23;;;;;;;8.00;100.00;101431.69;4960748;28;20456;-72
2023/11/11 11:09:27;;;;;;;3.97;0.73;;;;;;;7.85;100.00;101480.44;4977541;28;20441;-74
2023/11/11 11:12:21;;;;;;;5.93;1.00;;;;;;;7.96;100.00;101510.50;4974379;28;20477;-72
2023/11/11 11:14:51;;;;;;;4.63;0.90;;;;;;;7.55;100.00;101491.72;4978392;28;20468;-72
2023/11/11 11:17:18;;;;;;;5.07;0.93;;;;;;;7.79;100.00;101528.34;4961778;28;20437;-70
2023/11/11 11:19:55;;;;;;;3.93;0.97;;;;;;;7.77;100.00;101538.34;4976542;28;20441;-72
2023/11/11 11:22:24;;;;;;;3.60;0.80;;;;;;;7.59;100.00;101523.28;4978246;28;20486;-72